Time;durP1;ratioP1;P1;durP2;ratioP2;P2;SDS_P1;SDS_P2;PMS_P1;PMS_P2;Temp;Humidity;BMP_temperature;BMP_pressure;BME280_temperature;BME280_humidity;BME280_pressure;Samples;Min_cycle;Max_cycle;Signal;HPM_P1;HPM_P2
2021/09/14 00:01:32;;;;;;;11.88;7.85;;;;;;;13.35;90.73;94766.05;1616334;88;21848;-61
2021/09/14 00:03:58;;;;;;;11.80;7.30;;;;;;;13.31;90.80;94765.45;1620496;87;21086;-63
2021/09/14 00:06:26;;;;;;;7.83;6.40;;;;;;;13.31;90.87;94761.91;1622920;88;21011;-62
2021/09/14 00:08:53;;;;;;;10.32;6.83;;;;;;;13.31;90.78;94761.30;1620265;88;21070;-61
2021/09/14 00:11:19;;;;;;;11.53;8.10;;;;;;;13.29;90.71;94753.31;1622583;87;21439;-62
2021/09/14 00:13:47;;;;;;;9.38;7.20;;;;;;;13.24;90.66;94753.95;1619590;88;21026;-61
2021/09/14 00:16:15;;;;;;;10.05;7.33;;;;;;;13.17;90.75;94761.94;1616929;88;21196;-61
2021/09/14 00:18:44;;;;;;;10.90;7.78;;;;;;;13.13;90.85;94761.34;1618202;88;21600;-61
2021/09/14 00:21:11;;;;;;;11.80;8.55;;;;;;;13.10;90.91;94761.48;1618570;88;21232;-62
2021/09/14 00:23:38;;;;;;;11.10;8.38;;;;;;;13.10;90.98;94758.72;1621436;88;21077;-62
2021/09/14 00:26:04;;;;;;;9.25;8.35;;;;;;;13.10;91.19;94762.23;1619767;88;21819;-63
2021/09/14 00:28:31;;;;;;;10.45;8.58;;;;;;;13.12;91.17;94760.41;1622608;88;21775;-62
2021/09/14 00:30:58;;;;;;;13.48;9.08;;;;;;;13.07;91.25;94754.88;1618752;87;20979;-61
2021/09/14 00:33:24;;;;;;;10.90;7.87;;;;;;;13.04;91.59;94759.20;1622294;88;21105;-61
2021/09/14 00:35:52;;;;;;;13.10;8.90;;;;;;;13.04;91.52;94750.91;1620153;87;21041;-61
2021/09/14 00:38:18;;;;;;;14.53;8.40;;;;;;;13.07;91.62;94758.27;1625404;87;21204;-62
2021/09/14 00:40:45;;;;;;;12.47;8.10;;;;;;;13.07;91.46;94756.89;1623758;87;21066;-63
2021/09/14 00:43:21;;;;;;;11.00;7.17;;;;;;;13.07;91.51;94762.42;1621352;88;21188;-62
2021/09/14 00:45:49;;;;;;;12.90;8.03;;;;;;;13.10;91.63;94760.10;1623303;88;21557;-60
2021/09/14 00:48:16;;;;;;;13.03;7.90;;;;;;;13.11;91.20;94756.11;1620652;88;21642;-63
2021/09/14 00:50:43;;;;;;;10.93;7.78;;;;;;;13.12;91.22;94757.64;1622130;88;21459;-61
2021/09/14 00:53:10;;;;;;;12.53;8.08;;;;;;;13.13;90.82;94762.72;1626326;87;21050;-62
2021/09/14 00:55:37;;;;;;;10.58;7.65;;;;;;;13.13;90.54;94757.80;1619618;88;21240;-63
2021/09/14 00:58:05;;;;;;;14.83;8.13;;;;;;;13.12;90.47;94754.88;1624214;88;21172;-63
2021/09/14 01:00:32;;;;;;;12.78;9.40;;;;;;;13.08;90.62;94760.55;1623352;88;21082;-61
2021/09/14 01:02:59;;;;;;;13.53;8.58;;;;;;;13.10;91.08;94757.34;1621294;88;21144;-62
2021/09/14 01:05:26;;;;;;;13.60;8.63;;;;;;;13.13;91.47;94750.89;1605086;88;21727;-62
2021/09/14 01:07:54;;;;;;;13.32;7.95;;;;;;;13.17;91.55;94757.02;1624109;88;21038;-62
2021/09/14 01:10:22;;;;;;;12.33;8.05;;;;;;;13.19;91.51;94758.09;1623012;88;21041;-62
2021/09/14 01:12:51;;;;;;;12.23;8.15;;;;;;;13.21;91.74;94754.85;1621216;88;21597;-63
2021/09/14 01:15:17;;;;;;;11.63;7.67;;;;;;;13.23;91.69;94755.18;1620679;87;21212;-63
2021/09/14 01:17:44;;;;;;;12.00;8.68;;;;;;;13.21;91.62;94757.61;1620855;88;21149;-62
2021/09/14 01:20:12;;;;;;;12.30;7.62;;;;;;;13.19;91.65;94758.09;1623686;88;21113;-61
2021/09/14 01:22:40;;;;;;;9.38;6.92;;;;;;;13.23;91.94;94761.45;1620005;88;21708;-62
2021/09/14 01:25:21;;;;;;;11.28;7.90;;;;;;;13.25;91.50;94758.25;1623212;88;20974;-62
2021/09/14 01:27:49;;;;;;;11.25;7.72;;;;;;;13.24;91.31;94755.33;1621792;88;21192;-63
2021/09/14 01:30:20;;;;;;;10.28;8.08;;;;;;;13.22;91.33;94757.16;1628379;88;20966;-63
2021/09/14 01:32:51;;;;;;;10.78;7.47;;;;;;;13.24;91.45;94762.23;1624238;88;21158;-62
2021/09/14 01:35:22;;;;;;;13.18;7.55;;;;;;;13.28;91.42;94753.16;1623346;88;21017;-62
2021/09/14 01:37:54;;;;;;;10.15;8.28;;;;;;;13.27;91.30;94756.53;1628906;87;21086;-62
2021/09/14 01:40:21;;;;;;;12.23;8.10;;;;;;;13.31;91.64;94757.77;1627537;87;21161;-63
2021/09/14 01:42:50;;;;;;;15.85;8.08;;;;;;;13.31;91.33;94757.16;1622070;88;21432;-63
2021/09/14 01:45:16;;;;;;;10.50;6.97;;;;;;;13.33;91.44;94764.97;1619474;87;21213;-62
2021/09/14 01:47:44;;;;;;;10.90;7.20;;;;;;;13.33;91.22;94758.84;1621089;88;21565;-63
2021/09/14 01:50:13;;;;;;;8.58;7.10;;;;;;;13.30;91.09;94756.23;1621958;88;21121;-62
2021/09/14 01:52:40;;;;;;;11.90;7.65;;;;;;;13.30;91.47;94752.84;1624319;88;21161;-62
2021/09/14 01:55:10;;;;;;;9.65;8.10;;;;;;;13.38;91.67;94759.59;1628741;87;21093;-61
2021/09/14 01:57:40;;;;;;;8.75;7.42;;;;;;;13.41;91.33;94763.43;1623041;88;20986;-62
2021/09/14 02:00:14;;;;;;;11.25;7.35;;;;;;;13.41;91.13;94763.43;1620064;88;21030;-62
2021/09/14 02:05:35;;;;;;;13.85;8.75;;;;;;;13.47;91.34;94760.18;1621341;87;21138;-61
2021/09/14 02:24:24;;;;;;;10.10;6.83;;;;;;;13.37;90.64;94765.56;1620395;88;21530;-62
2021/09/14 02:43:30;;;;;;;12.98;9.45;;;;;;;13.03;90.58;94765.33;1608283;88;21002;-62
2021/09/14 02:58:37;;;;;;;10.78;9.08;;;;;;;12.96;91.96;94769.02;1624212;88;21033;-63
2021/09/14 02:59:26;;;;;;;11.18;9.28;;;;;;;12.98;92.09;94767.33;1622472;88;21471;-62
2021/09/14 03:01:55;;;;;;;12.28;9.98;;;;;;;13.03;92.40;94765.92;1627901;88;21526;-62
2021/09/14 03:04:22;;;;;;;13.88;9.25;;;;;;;13.08;92.27;94766.08;1621648;88;21050;-62
2021/09/14 03:06:50;;;;;;;15.05;10.30;;;;;;;13.11;92.14;94772.69;1622779;88;21039;-63
2021/09/14 03:09:19;;;;;;;16.05;12.40;;;;;;;13.12;91.92;94776.98;1618795;88;21039;-63
2021/09/14 03:11:47;;;;;;;21.60;13.40;;;;;;;13.12;91.79;94772.84;1620149;88;21011;-63
2021/09/14 03:14:17;;;;;;;13.50;10.08;;;;;;;13.10;91.77;94768.39;1618569;88;38550;-63
2021/09/14 03:16:45;;;;;;;13.32;11.00;;;;;;;13.08;91.60;94773.61;1617394;88;21081;-63
2021/09/14 03:19:12;;;;;;;15.10;9.58;;;;;;;13.02;91.35;94778.20;1623502;88;21041;-63
2021/09/14 03:21:40;;;;;;;11.25;10.03;;;;;;;12.98;91.76;94773.45;1622389;87;21058;-62
2021/09/14 03:24:09;;;;;;;14.58;10.20;;;;;;;12.96;91.61;94774.53;1620251;87;21123;-62
2021/09/14 03:26:36;;;;;;;13.35;10.08;;;;;;;12.95;91.84;94773.00;1622428;87;20971;-62
2021/09/14 03:29:02;;;;;;;12.60;9.28;;;;;;;12.95;91.91;94778.53;1622512;88;21065;-63
2021/09/14 03:31:31;;;;;;;14.90;8.75;;;;;;;12.95;92.00;94778.53;1623303;88;21102;-62
2021/09/14 03:33:58;;;;;;;20.12;9.80;;;;;;;12.98;92.22;94779.77;1623066;88;21438;-62
2021/09/14 03:36:25;;;;;;;15.55;9.80;;;;;;;13.01;92.23;94777.45;1621720;88;21145;-63
2021/09/14 03:38:52;;;;;;;14.03;9.90;;;;;;;13.07;92.42;94774.84;1618715;88;21037;-63
2021/09/14 03:41:19;;;;;;;14.40;9.63;;;;;;;13.11;91.91;94779.59;1622281;88;21026;-63
2021/09/14 03:43:46;;;;;;;14.45;9.00;;;;;;;13.12;91.51;94779.74;1622431;88;21026;-63
2021/09/14 03:46:13;;;;;;;12.98;9.20;;;;;;;13.10;91.08;94782.20;1620944;87;21066;-62
2021/09/14 03:48:41;;;;;;;15.60;9.65;;;;;;;13.07;91.04;94783.13;1622986;88;21168;-62
2021/09/14 03:51:07;;;;;;;25.40;10.08;;;;;;;13.06;91.25;94787.13;1620067;88;21154;-62
2021/09/14 03:53:34;;;;;;;11.18;8.85;;;;;;;13.07;91.49;94786.64;1622547;87;21050;-62
2021/09/14 03:56:01;;;;;;;15.23;9.20;;;;;;;13.11;91.57;94784.48;1623952;88;21030;-63
2021/09/14 03:58:30;;;;;;;13.80;9.10;;;;;;;13.19;91.39;94789.86;1625213;88;21045;-62
2021/09/14 04:00:56;;;;;;;16.00;10.03;;;;;;;13.24;91.04;94794.01;1625581;88;21918;-63
2021/09/14 04:03:35;;;;;;;13.45;8.80;;;;;;;13.24;91.00;94795.39;1624044;87;21058;-63
2021/09/14 04:06:09;;;;;;;28.10;9.55;;;;;;;13.20;90.73;94795.54;1621875;88;21014;-62
2021/09/14 04:11:15;;;;;;;15.45;11.80;;;;;;;13.02;90.65;94798.92;1619829;88;21582;-62
2021/09/14 04:13:42;;;;;;;20.55;14.68;;;;;;;12.94;90.80;94802.59;1621415;88;21139;-63
2021/09/14 04:16:09;;;;;;;29.00;17.27;;;;;;;12.88;90.93;94806.43;1625693;88;20969;-62
2021/09/14 04:18:36;;;;;;;20.77;15.23;;;;;;;12.83;91.08;94800.12;1619749;88;21538;-61
2021/09/14 04:21:03;;;;;;;26.55;13.88;;;;;;;12.83;91.15;94803.66;1617172;88;21089;-62
2021/09/14 04:23:30;;;;;;;24.25;15.25;;;;;;;12.85;91.17;94805.34;1624206;87;21601;-62
2021/09/14 04:25:57;;;;;;;26.10;16.70;;;;;;;12.87;91.45;94808.41;1623889;87;21124;-62
2021/09/14 04:28:24;;;;;;;22.50;14.15;;;;;;;12.91;91.64;94807.64;1620195;88;21128;-62
2021/09/14 04:30:51;;;;;;;22.45;12.30;;;;;;;12.96;91.59;94801.55;1622758;87;21022;-62
2021/09/14 04:33:18;;;;;;;18.02;13.05;;;;;;;12.98;91.44;94801.86;1619902;88;21101;-62
2021/09/14 04:35:46;;;;;;;16.57;12.05;;;;;;;12.96;91.48;94808.45;1620477;88;21419;-62
2021/09/14 04:38:13;;;;;;;21.30;11.57;;;;;;;13.02;91.31;94809.96;1622821;87;21210;-62
2021/09/14 04:40:42;;;;;;;15.15;10.60;;;;;;;13.04;91.40;94806.16;1623047;86;21134;-61
2021/09/14 04:43:10;;;;;;;13.88;10.28;;;;;;;13.04;91.15;94811.05;1620271;88;21049;-62
2021/09/14 04:45:37;;;;;;;18.25;10.88;;;;;;;13.02;91.20;94811.34;1619766;88;21042;-61
2021/09/14 04:48:04;;;;;;;34.33;10.98;;;;;;;13.02;91.23;94809.96;1618540;88;21081;-62
2021/09/14 04:50:33;;;;;;;23.55;12.45;;;;;;;13.05;91.56;94818.73;1620499;88;20999;-62
2021/09/14 04:53:00;;;;;;;22.30;13.15;;;;;;;13.07;91.23;94810.75;1619743;88;20987;-63
2021/09/14 04:55:28;;;;;;;24.25;11.65;;;;;;;13.02;91.13;94815.48;1621315;87;21498;-61
2021/09/14 04:57:56;;;;;;;15.83;9.98;;;;;;;13.02;91.37;94816.27;1621403;87;21003;-63
2021/09/14 05:00:23;;;;;;;21.68;10.93;;;;;;;13.02;91.42;94809.36;1623374;88;21100;-62
2021/09/14 05:02:52;;;;;;;15.00;10.32;;;;;;;13.02;91.54;94811.34;1602461;88;21002;-62
2021/09/14 05:05:20;;;;;;;25.17;11.15;;;;;;;13.04;91.80;94810.30;1622844;88;21070;-61
2021/09/14 05:07:48;;;;;;;20.52;9.20;;;;;;;13.05;91.84;94804.30;1622198;88;21198;-62
2021/09/14 05:10:16;;;;;;;21.80;11.38;;;;;;;13.09;92.17;94805.53;1622546;88;21065;-61
2021/09/14 05:12:45;;;;;;;25.30;17.77;;;;;;;13.20;92.50;94807.19;1622886;87;21070;-62
2021/09/14 05:15:13;;;;;;;28.87;21.95;;;;;;;13.34;92.10;94807.34;1619741;87;21003;-65
2021/09/14 05:17:48;;;;;;;18.32;14.58;;;;;;;13.44;91.78;94803.95;1610024;88;21062;-62
2021/09/14 05:20:17;;;;;;;22.17;12.10;;;;;;;13.54;91.75;94812.36;1618818;87;21018;-62
2021/09/14 05:22:46;;;;;;;21.02;10.82;;;;;;;13.59;91.30;94810.37;1624820;88;21018;-63
2021/09/14 05:25:12;;;;;;;19.15;10.95;;;;;;;13.60;91.02;94807.76;1623505;88;21086;-63
2021/09/14 05:27:39;;;;;;;15.95;11.97;;;;;;;13.65;91.00;94816.16;1626714;87;21152;-63
2021/09/14 05:30:08;;;;;;;14.87;10.13;;;;;;;13.70;90.96;94812.02;1637937;86;21027;-63
2021/09/14 05:32:35;;;;;;;12.58;9.63;;;;;;;13.77;90.92;94806.14;1633653;87;21077;-62
2021/09/14 05:35:05;;;;;;;12.35;7.53;;;;;;;13.86;90.63;94802.77;1637228;86;21106;-63
2021/09/14 05:37:31;;;;;;;12.63;7.30;;;;;;;13.99;90.21;94809.47;1612471;87;21068;-62
2021/09/14 05:39:59;;;;;;;19.95;7.55;;;;;;;14.12;89.78;94803.09;1629024;86;21123;-62
2021/09/14 05:42:26;;;;;;;12.80;7.40;;;;;;;14.20;89.17;94800.93;1627405;87;21180;-61
2021/09/14 05:44:54;;;;;;;9.85;7.85;;;;;;;14.23;88.59;94799.23;1628061;87;21082;-64
2021/09/14 05:47:21;;;;;;;13.38;9.60;;;;;;;14.23;88.23;94799.23;1615311;87;21247;-61
2021/09/14 05:49:48;;;;;;;16.50;10.23;;;;;;;14.30;88.15;94805.80;1631560;87;20995;-61
2021/09/14 05:52:16;;;;;;;11.05;7.67;;;;;;;14.34;87.98;94803.65;1625568;87;21541;-60
2021/09/14 05:54:44;;;;;;;10.48;7.58;;;;;;;14.33;87.57;94804.89;1612446;86;21073;-59
2021/09/14 05:57:11;;;;;;;15.70;7.45;;;;;;;14.33;87.64;94807.66;1608961;87;21086;-62
2021/09/14 05:59:39;;;;;;;8.88;6.30;;;;;;;14.31;87.52;94802.58;1623134;86;21062;-61
2021/09/14 06:02:06;;;;;;;8.78;6.00;;;;;;;14.28;87.21;94804.91;1588634;88;21095;-65
2021/09/14 06:04:33;;;;;;;7.12;5.75;;;;;;;14.29;86.83;94807.03;1604118;87;21184;-62
2021/09/14 06:07:00;;;;;;;8.00;5.90;;;;;;;14.27;86.51;94801.20;1607091;87;22023;-64
2021/09/14 06:09:28;;;;;;;13.53;6.85;;;;;;;14.26;86.29;94809.36;1585472;89;21158;-60
2021/09/14 06:11:55;;;;;;;9.98;7.22;;;;;;;14.20;86.08;94810.61;1549690;90;21965;-63
2021/09/14 06:14:23;;;;;;;8.30;6.92;;;;;;;14.15;86.16;94804.31;1568237;89;21119;-62
2021/09/14 06:16:52;;;;;;;8.15;7.03;;;;;;;14.15;86.21;94817.40;1560288;90;21459;-64
2021/09/14 06:19:23;;;;;;;9.83;7.37;;;;;;;14.14;86.40;94815.86;1614199;86;21063;-61
2021/09/14 06:21:51;;;;;;;10.23;6.92;;;;;;;14.19;86.58;94816.63;1593819;87;22243;-61
2021/09/14 06:24:20;;;;;;;10.45;6.45;;;;;;;14.27;86.80;94816.42;1628542;86;21088;-62
2021/09/14 06:26:47;;;;;;;11.15;6.72;;;;;;;14.32;86.40;94811.66;1617885;87;21070;-69
2021/09/14 06:29:14;;;;;;;6.78;5.87;;;;;;;14.37;86.16;94812.39;1590021;88;21104;-65
2021/09/14 06:31:45;;;;;;;14.90;8.18;;;;;;;14.35;85.54;94812.09;1545909;90;21115;-64
2021/09/14 06:34:14;;;;;;;8.75;7.35;;;;;;;14.29;85.73;94811.97;1557784;89;21050;-71
2021/09/14 06:36:41;;;;;;;10.03;6.90;;;;;;;14.30;85.78;94809.34;1604483;86;21128;-66
2021/09/14 06:39:08;;;;;;;11.57;8.10;;;;;;;14.37;85.98;94812.39;1609469;87;21105;-64
2021/09/14 06:41:34;;;;;;;8.40;7.55;;;;;;;14.48;86.29;94811.38;1578256;88;22488;-67
2021/09/14 06:44:04;;;;;;;12.65;9.25;;;;;;;14.64;86.33;94813.75;1553513;90;21116;-63
2021/09/14 06:46:42;;;;;;;13.78;8.50;;;;;;;14.78;85.68;94819.97;1607544;87;21229;-69
2021/09/14 06:49:13;;;;;;;10.63;7.35;;;;;;;14.83;84.85;94818.56;1610034;87;21118;-64
2021/09/14 06:51:40;;;;;;;14.68;6.95;;;;;;;14.86;84.58;94813.45;1611230;87;21129;-60
2021/09/14 06:54:07;;;;;;;10.58;7.30;;;;;;;14.93;84.54;94815.25;1580064;89;21632;-64
2021/09/14 06:56:34;;;;;;;9.05;7.33;;;;;;;15.03;83.91;94807.63;1556015;90;21093;-59
2021/09/14 06:59:03;;;;;;;8.43;7.33;;;;;;;15.10;83.67;94812.80;1563067;91;21062;-63
2021/09/14 07:01:30;;;;;;;11.03;8.35;;;;;;;15.16;83.37;94806.77;1564453;90;21175;-63
2021/09/14 07:03:57;;;;;;;10.15;8.13;;;;;;;15.18;83.16;94817.50;1567713;89;22347;-60
2021/09/14 07:06:26;;;;;;;10.90;9.80;;;;;;;15.21;83.15;94813.03;1569182;90;21022;-62
2021/09/14 07:08:54;;;;;;;14.53;11.35;;;;;;;15.27;82.89;94814.67;1571454;89;21091;-61
2021/09/14 07:11:20;;;;;;;16.12;11.15;;;;;;;15.32;82.87;94813.28;1564867;90;21109;-62
2021/09/14 07:13:48;;;;;;;14.80;11.35;;;;;;;15.36;82.76;94804.90;1569127;89;22265;-62
2021/09/14 07:16:14;;;;;;;15.15;8.63;;;;;;;15.45;83.31;94806.22;1560529;89;21062;-63
2021/09/14 07:18:43;;;;;;;14.23;9.43;;;;;;;15.59;82.89;94802.69;1568328;89;21105;-68
2021/09/14 07:21:10;;;;;;;11.10;9.88;;;;;;;15.67;82.07;94803.83;1565172;90;21128;-60
2021/09/14 07:23:38;;;;;;;29.90;8.68;;;;;;;15.73;81.72;94803.93;1568329;90;21106;-62
2021/09/14 07:26:05;;;;;;;9.95;7.35;;;;;;;15.80;81.53;94802.14;1567605;89;21705;-63
2021/09/14 07:28:32;;;;;;;13.25;7.78;;;;;;;15.92;81.04;94808.78;1570237;89;21149;-65
2021/09/14 07:30:59;;;;;;;9.73;7.40;;;;;;;16.03;80.70;94802.03;1570379;89;21224;-64
2021/09/14 07:33:26;;;;;;;11.65;8.20;;;;;;;16.15;80.48;94800.98;1567553;89;21132;-70
2021/09/14 07:35:53;;;;;;;6.45;5.85;;;;;;;16.31;80.02;94797.05;1539895;90;21053;-60
2021/09/14 07:38:20;;;;;;;10.05;7.67;;;;;;;16.47;79.61;94801.34;1550355;90;21160;-62
2021/09/14 07:40:48;;;;;;;10.48;7.25;;;;;;;16.57;78.52;94799.34;1531812;91;22245;-64
2021/09/14 07:43:18;;;;;;;10.08;6.65;;;;;;;16.69;78.69;94796.86;1547252;90;21167;-61
2021/09/14 07:45:47;;;;;;;8.93;7.28;;;;;;;16.82;77.61;94796.52;1547920;90;21175;-60
2021/09/14 07:48:14;;;;;;;17.17;9.28;;;;;;;16.96;77.36;94794.30;1573287;87;21266;-62
2021/09/14 07:50:41;;;;;;;9.33;7.90;;;;;;;17.16;76.69;94795.67;1593052;88;21804;-63
2021/09/14 07:53:08;;;;;;;8.08;6.53;;;;;;;17.34;75.64;94791.23;1601701;88;21018;-62
2021/09/14 07:55:35;;;;;;;12.30;7.70;;;;;;;17.55;75.32;94792.09;1610395;86;21117;-64
2021/09/14 07:58:03;;;;;;;9.65;6.30;;;;;;;17.79;74.15;94793.22;1608114;87;21084;-65
2021/09/14 08:00:30;;;;;;;15.85;8.13;;;;;;;18.04;74.07;94789.63;1608964;87;21060;-61
2021/09/14 08:02:58;;;;;;;63.83;15.45;;;;;;;18.28;72.69;94787.44;1606267;86;21565;-65
2021/09/14 08:05:26;;;;;;;34.27;10.80;;;;;;;18.48;72.56;94787.31;1611435;87;21131;-64
2021/09/14 08:07:53;;;;;;;29.95;10.90;;;;;;;18.62;71.68;94786.40;1595040;87;21189;-65
2021/09/14 08:10:20;;;;;;;54.85;15.32;;;;;;;18.75;71.48;94779.77;1608115;86;21111;-63
2021/09/14 08:12:47;;;;;;;19.12;7.72;;;;;;;18.87;72.18;94781.97;1598763;87;21093;-71
2021/09/14 08:15:14;;;;;;;6.22;5.58;;;;;;;18.98;72.33;94785.57;1609103;87;21085;-65
2021/09/14 08:17:43;;;;;;;6.47;5.87;;;;;;;19.12;72.06;94783.23;1608408;87;21098;-65
2021/09/14 08:20:10;;;;;;;7.25;5.50;;;;;;;19.26;71.31;94778.12;1577185;89;21158;-63
2021/09/14 08:22:38;;;;;;;7.12;5.50;;;;;;;19.37;71.70;94779.53;1552023;89;21421;-61
2021/09/14 08:25:07;;;;;;;13.00;7.03;;;;;;;19.42;71.68;94776.02;1609510;88;21083;-65
2021/09/14 08:27:35;;;;;;;6.90;5.75;;;;;;;19.48;71.34;94769.80;1608992;87;21633;-64
2021/09/14 08:30:03;;;;;;;9.28;6.12;;;;;;;19.58;70.96;94771.08;1609549;86;21669;-64
2021/09/14 08:32:31;;;;;;;6.53;5.78;;;;;;;19.70;70.27;94774.03;1575558;89;21332;-63
2021/09/14 08:34:58;;;;;;;9.03;5.47;;;;;;;19.89;69.89;94781.30;1607830;87;21094;-65
2021/09/14 08:37:26;;;;;;;9.98;6.30;;;;;;;20.01;69.09;94772.42;1610485;86;21540;-61
2021/09/14 08:39:54;;;;;;;9.13;7.35;;;;;;;20.10;69.47;94770.78;1604960;88;21525;-63
2021/09/14 08:42:21;;;;;;;7.75;6.17;;;;;;;20.26;69.58;94779.80;1587102;89;21553;-64
2021/09/14 08:44:50;;;;;;;10.50;6.90;;;;;;;20.39;68.80;94770.27;1568219;89;21147;-63
2021/09/14 08:47:17;;;;;;;6.75;6.15;;;;;;;20.46;67.98;94780.92;1560893;89;21177;-63
2021/09/14 08:49:44;;;;;;;13.08;7.95;;;;;;;20.48;67.52;94771.39;1565606;89;21076;-63
2021/09/14 08:52:12;;;;;;;8.48;7.08;;;;;;;20.54;66.53;94774.95;1561638;90;21049;-62
2021/09/14 08:54:39;;;;;;;7.87;6.87;;;;;;;20.63;66.74;94776.84;1570800;88;22346;-71
2021/09/14 08:57:06;;;;;;;14.30;7.55;;;;;;;20.70;66.93;94774.16;1568013;89;21124;-59
2021/09/14 08:59:33;;;;;;;19.12;10.30;;;;;;;20.77;67.41;94772.23;1562449;90;21148;-66
2021/09/14 09:02:05;;;;;;;16.07;9.23;;;;;;;20.87;67.19;94765.88;1563458;88;21131;-62
2021/09/14 09:04:34;;;;;;;11.68;8.63;;;;;;;21.05;66.86;94758.31;1563526;89;21148;-60
2021/09/14 09:07:03;;;;;;;21.20;7.12;;;;;;;21.27;65.76;94757.46;1567032;89;22213;-60
2021/09/14 09:09:32;;;;;;;10.80;6.85;;;;;;;21.39;65.12;94763.11;1568240;89;21107;-61
2021/09/14 09:12:07;;;;;;;11.93;7.30;;;;;;;21.42;65.11;94760.67;1582602;89;21608;-60
2021/09/14 09:14:42;;;;;;;14.30;8.05;;;;;;;21.43;65.24;94756.59;1610268;86;21095;-62
2021/09/14 09:17:14;;;;;;;7.50;6.25;;;;;;;21.53;65.55;94757.82;1607412;87;21102;-61
2021/09/14 09:19:44;;;;;;;6.83;6.12;;;;;;;21.63;64.85;94760.48;1607377;87;21062;-60
2021/09/14 09:22:12;;;;;;;11.97;6.60;;;;;;;21.74;64.55;94759.77;1611114;87;22310;-62
2021/09/14 09:24:49;;;;;;;12.80;6.55;;;;;;;21.83;64.13;94758.03;1612342;86;21045;-62
2021/09/14 09:27:21;;;;;;;10.25;6.22;;;;;;;21.87;63.91;94760.56;1617241;85;21165;-62
2021/09/14 09:30:04;;;;;;;11.88;6.97;;;;;;;21.91;63.54;94752.02;1612872;87;21081;-59
2021/09/14 09:32:48;;;;;;;10.28;8.33;;;;;;;21.94;62.94;94750.19;1624763;86;21112;-59
2021/09/14 09:35:30;;;;;;;8.65;7.20;;;;;;;21.87;63.30;94753.56;1612230;86;21109;-65
2021/09/14 09:37:57;;;;;;;7.05;5.97;;;;;;;21.93;62.50;94752.88;1596444;87;21253;-66
2021/09/14 09:40:32;;;;;;;6.25;5.65;;;;;;;22.03;61.68;94755.48;1600793;86;21023;-58
2021/09/14 09:43:09;;;;;;;7.12;6.42;;;;;;;22.05;60.65;94754.44;1604424;88;21043;-63
2021/09/14 09:45:45;;;;;;;7.35;6.65;;;;;;;22.11;60.94;94753.00;1598198;87;21155;-61
2021/09/14 09:48:13;;;;;;;10.32;7.53;;;;;;;22.24;59.95;94755.30;1598201;86;22987;-63
2021/09/14 09:50:41;;;;;;;8.30;6.17;;;;;;;22.36;59.86;94755.33;1613262;87;21154;-60
2021/09/14 09:53:08;;;;;;;8.03;6.83;;;;;;;22.48;58.99;94752.55;1606793;86;21049;-62
2021/09/14 09:55:36;;;;;;;6.25;5.65;;;;;;;22.61;59.08;94749.89;1587062;87;21274;-65
2021/09/14 09:58:06;;;;;;;7.20;6.28;;;;;;;22.79;58.88;94749.20;1597021;87;21257;-62
2021/09/14 10:00:37;;;;;;;8.48;6.20;;;;;;;22.99;58.09;94739.55;1607070;87;21858;-68
2021/09/14 10:03:08;;;;;;;6.50;5.90;;;;;;;23.08;57.76;94736.36;1614587;87;21119;-63
2021/09/14 10:05:37;;;;;;;7.08;6.37;;;;;;;23.13;57.79;94739.77;1598952;86;21144;-62
2021/09/14 10:08:12;;;;;;;10.50;6.35;;;;;;;23.19;57.88;94738.42;1600139;88;21086;-63
2021/09/14 10:10:40;;;;;;;8.10;6.15;;;;;;;23.36;57.71;94732.61;1597937;87;21576;-63
2021/09/14 10:13:09;;;;;;;6.03;5.50;;;;;;;23.66;56.57;94733.97;1632242;87;21174;-63
2021/09/14 10:15:42;;;;;;;7.55;5.30;;;;;;;23.73;56.03;94736.81;1618190;86;21500;-63
2021/09/14 10:18:10;;;;;;;6.92;5.78;;;;;;;23.69;55.89;94741.33;1592824;88;21114;-63
2021/09/14 10:20:42;;;;;;;9.53;5.70;;;;;;;23.61;55.46;94743.22;1597298;87;21121;-64
2021/09/14 10:23:17;;;;;;;17.35;7.25;;;;;;;23.46;54.63;94734.51;1601297;88;21084;-62
2021/09/14 10:25:51;;;;;;;6.03;5.12;;;;;;;23.31;55.68;94737.00;1603088;86;21370;-63
2021/09/14 10:28:20;;;;;;;11.03;6.10;;;;;;;23.21;56.90;94735.84;1603117;86;21883;-62
2021/09/14 10:30:48;;;;;;;9.18;6.53;;;;;;;23.14;57.06;94737.84;1594409;88;21085;-65
2021/09/14 10:33:22;;;;;;;7.05;5.75;;;;;;;23.20;57.76;94734.32;1601838;88;22040;-64
2021/09/14 10:35:49;;;;;;;9.68;6.90;;;;;;;23.19;56.81;94730.66;1593340;87;20962;-65
2021/09/14 10:38:16;;;;;;;20.95;9.55;;;;;;;23.10;57.09;94735.96;1594252;87;22181;-63
2021/09/14 10:40:49;;;;;;;17.05;7.53;;;;;;;22.96;57.60;94740.58;1597475;88;21600;-64
2021/09/14 10:43:28;;;;;;;9.03;5.97;;;;;;;22.88;57.73;94734.80;1596944;87;21087;-61
2021/09/14 10:45:56;;;;;;;11.53;5.85;;;;;;;22.82;56.94;94734.11;1595224;88;21082;-61
2021/09/14 10:48:29;;;;;;;9.35;6.22;;;;;;;22.75;57.49;94726.29;1598809;87;21043;-61
2021/09/14 10:51:08;;;;;;;6.55;5.50;;;;;;;22.77;57.42;94733.53;1609722;86;22262;-63
2021/09/14 10:53:36;;;;;;;7.78;5.72;;;;;;;22.77;57.24;94735.56;1600004;88;21582;-62
2021/09/14 10:56:04;;;;;;;8.45;6.17;;;;;;;22.74;57.71;94734.59;1595555;87;21013;-64
2021/09/14 10:58:44;;;;;;;8.63;5.97;;;;;;;22.73;57.78;94734.47;1593691;88;21106;-62
2021/09/14 11:01:12;;;;;;;6.78;5.70;;;;;;;22.73;57.62;94734.47;1606211;87;21032;-64
2021/09/14 11:03:39;;;;;;;10.35;7.35;;;;;;;22.69;57.51;94728.38;1610589;87;21120;-62
2021/09/14 11:06:10;;;;;;;14.10;7.45;;;;;;;22.62;58.25;94735.98;1616346;86;21936;-62
2021/09/14 11:08:38;;;;;;;13.55;8.55;;;;;;;22.54;58.90;94729.45;1614151;86;21124;-63
2021/09/14 11:11:07;;;;;;;12.33;8.43;;;;;;;22.45;59.51;94733.98;1613846;87;21045;-65
2021/09/14 11:13:34;;;;;;;16.52;9.43;;;;;;;22.43;59.48;94735.16;1603723;87;21187;-64
2021/09/14 11:16:04;;;;;;;8.93;8.03;;;;;;;22.43;59.75;94729.55;1609414;86;22095;-64
2021/09/14 11:18:34;;;;;;;11.38;7.70;;;;;;;22.59;60.06;94730.66;1598892;88;21041;-65
2021/09/14 11:21:09;;;;;;;8.35;7.20;;;;;;;22.98;60.06;94727.55;1609480;86;21053;-65
2021/09/14 11:23:40;;;;;;;7.78;7.00;;;;;;;23.77;59.44;94729.58;1572291;88;21074;-63
2021/09/14 11:26:10;;;;;;;14.60;7.00;;;;;;;24.57;59.15;94724.50;1581713;89;21234;-62
2021/09/14 11:28:38;;;;;;;11.15;6.20;;;;;;;25.41;55.20;94720.30;1614974;86;21167;-66
2021/09/14 11:31:11;;;;;;;7.83;5.60;;;;;;;25.79;53.34;94728.55;1605043;86;21139;-60
2021/09/14 11:33:45;;;;;;;8.58;6.53;;;;;;;25.80;52.53;94726.47;1608797;86;21044;-63
2021/09/14 11:36:12;;;;;;;16.37;6.58;;;;;;;25.59;52.02;94722.84;1585106;87;21053;-59
2021/09/14 11:38:40;;;;;;;8.28;6.22;;;;;;;25.34;52.33;94721.61;1603413;86;21037;-64
2021/09/14 11:41:11;;;;;;;10.32;7.22;;;;;;;25.11;52.66;94724.75;1578572;89;21301;-58
2021/09/14 11:43:43;;;;;;;9.68;6.60;;;;;;;24.95;53.50;94729.39;1566921;90;21051;-63
2021/09/14 11:46:17;;;;;;;8.63;7.20;;;;;;;24.84;53.44;94718.36;1558083;90;21594;-64
2021/09/14 11:48:58;;;;;;;11.55;6.60;;;;;;;24.64;53.95;94714.77;1561640;89;21097;-63
2021/09/14 11:51:39;;;;;;;12.50;6.85;;;;;;;24.33;54.06;94714.78;1558048;90;21657;-63
2021/09/14 11:54:12;;;;;;;8.43;6.30;;;;;;;24.04;55.41;94720.00;1560044;89;21865;-66
2021/09/14 11:56:40;;;;;;;8.03;6.95;;;;;;;23.81;55.91;94720.22;1554662;90;21076;-63
2021/09/14 11:59:17;;;;;;;11.45;7.70;;;;;;;23.57;56.58;94718.14;1562920;90;21531;-67
2021/09/14 12:01:45;;;;;;;8.28;7.42;;;;;;;23.40;57.22;94718.36;1563539;90;22131;-65
2021/09/14 12:04:16;;;;;;;10.85;7.70;;;;;;;23.21;58.14;94715.44;1611866;86;21130;-62
2021/09/14 12:06:52;;;;;;;9.83;8.23;;;;;;;22.99;58.44;94708.02;1604142;87;21834;-68
2021/09/14 12:09:22;;;;;;;11.65;9.08;;;;;;;22.81;59.26;94713.61;1600956;87;21187;-64
2021/09/14 12:12:09;;;;;;;10.03;8.80;;;;;;;22.68;60.23;94714.23;1609958;87;21035;-65
2021/09/14 12:14:36;;;;;;;10.45;8.83;;;;;;;22.59;60.53;94713.20;1600707;86;21210;-70
2021/09/14 12:17:06;;;;;;;11.78;8.55;;;;;;;22.46;60.50;94706.06;1608362;86;21718;-66
2021/09/14 12:19:36;;;;;;;11.48;8.43;;;;;;;22.36;61.44;94708.30;1613163;86;21585;-62
2021/09/14 12:22:07;;;;;;;10.93;8.93;;;;;;;22.24;61.87;94706.25;1609939;87;21079;-65
2021/09/14 12:24:33;;;;;;;20.32;9.20;;;;;;;22.09;61.75;94701.66;1607363;87;21105;-63